Archival Weather

Chicago O'Hare International

Chicago, Illinois (KORD)

Report from: Thursday, December 29, 2022 2:51 AM CST
Current time: Friday, June 21, 2024 2:13 AM CDT

Current weather – Weather history – Daily summaries
Weather forecast

Temperature6.7°C (44.1°F)
Wind chill3.2°C (37.7°F)
Dew point3.3°C (37.9°F)
Winds 11 kts (5.7 m/s, 12.7 mph) South (190°)
Wind gusts 19 kts (9.8 m/s, 21.9 mph)
Visibility10 mi. (16.1 km)
Clouds Scattered clouds 25,000 ft. (7,620 m)
Altimeter29.77 in.Hg (1008 mB)
Relative humidity79 %
Density altitude-723 ft. (-220 m)
Sea-level pressure100.9 kPa (1009 mB, 29.78 in.Hg)
Remarks Automated weather observing station with precipitation discriminator
Pressure rising more quickly
Flight conditions Visual Meteorological Conditions
Raw dataKORD 290851Z 19011G19KT 10SM SCT250 07/03 A2977 RMK AO2 SLP085 T00670033 53001
An error has occurred. This application may no longer respond until reloaded. Reload 🗙